createdAt,value
2018-03-14T00:00:55.198Z,9.90
2018-03-14T00:01:55.144Z,9.80
2018-03-14T00:02:55.613Z,9.40
2018-03-14T00:03:55.079Z,9.50
2018-03-14T00:04:55.007Z,9.90
2018-03-14T00:05:54.961Z,10.20
2018-03-14T00:06:54.924Z,10.10
2018-03-14T00:07:54.876Z,9.60
2018-03-14T00:08:54.930Z,9.40
2018-03-14T00:09:54.789Z,9.60
2018-03-14T00:10:54.743Z,10.30
2018-03-14T00:11:54.737Z,10.60
2018-03-14T00:12:54.647Z,9.80
2018-03-14T00:13:54.637Z,9.80
2018-03-14T00:14:54.567Z,10.50
2018-03-14T00:15:54.560Z,9.40
2018-03-14T00:16:54.515Z,9.00
2018-03-14T00:17:54.496Z,9.40
2018-03-14T00:18:54.399Z,9.80
2018-03-14T00:19:54.382Z,9.20
2018-03-14T00:20:54.328Z,8.90
2018-03-14T00:21:54.314Z,9.30
2018-03-14T00:22:54.228Z,9.10
2018-03-14T00:23:54.214Z,9.70
2018-03-14T00:24:54.172Z,8.80
2018-03-14T00:25:54.128Z,9.40
2018-03-14T00:26:54.135Z,9.10
2018-03-14T00:27:54.062Z,9.20
2018-03-14T00:28:54.026Z,8.40
2018-03-14T00:29:54.049Z,8.90
2018-03-14T00:30:53.898Z,9.20
2018-03-14T00:31:53.867Z,8.40
2018-03-14T00:32:53.864Z,8.80
2018-03-14T00:33:53.773Z,8.90
2018-03-14T00:34:53.729Z,9.00
2018-03-14T00:35:53.731Z,8.40
2018-03-14T00:36:53.670Z,8.80
2018-03-14T00:37:53.595Z,9.00
2018-03-14T00:38:53.654Z,8.80
2018-03-14T00:39:53.512Z,9.00
2018-03-14T00:40:53.512Z,8.80
2018-03-14T00:41:53.435Z,8.40
2018-03-14T00:42:53.431Z,8.40
2018-03-14T00:43:53.346Z,8.40
2018-03-14T00:44:53.335Z,8.50
2018-03-14T00:45:53.287Z,8.80
2018-03-14T00:46:53.265Z,9.00
2018-03-14T00:47:53.206Z,9.10
2018-03-14T00:48:53.161Z,8.20
2018-03-14T00:49:53.086Z,8.80
2018-03-14T00:50:53.094Z,8.40
2018-03-14T00:51:53.052Z,8.20
2018-03-14T00:52:52.963Z,9.10
2018-03-14T00:53:52.972Z,8.70
2018-03-14T00:54:52.907Z,8.60
2018-03-14T00:55:52.895Z,8.60
2018-03-14T00:56:52.824Z,8.70
2018-03-14T00:57:52.783Z,8.40
2018-03-14T00:58:52.712Z,8.70
2018-03-14T00:59:52.662Z,8.40
2018-03-14T01:00:52.632Z,8.60
2018-03-14T01:01:52.624Z,8.10
2018-03-14T01:02:52.555Z,8.20
2018-03-14T01:03:52.496Z,9.10
2018-03-14T01:04:52.465Z,8.70
2018-03-14T01:05:52.432Z,9.00
2018-03-14T01:06:52.446Z,8.50
2018-03-14T01:07:53.120Z,7.70
2018-03-14T01:08:52.346Z,8.70
2018-03-14T01:09:52.257Z,8.70
2018-03-14T01:10:52.237Z,8.70
2018-03-14T01:11:52.175Z,8.30
2018-03-14T01:12:52.115Z,8.80
2018-03-14T01:13:52.074Z,8.90
2018-03-14T01:14:52.047Z,8.60
2018-03-14T01:15:52.003Z,8.10
2018-03-14T01:16:51.991Z,9.20
2018-03-14T01:17:51.912Z,9.20
2018-03-14T01:18:51.895Z,8.80
2018-03-14T01:19:51.813Z,8.70
2018-03-14T01:20:51.851Z,9.30
2018-03-14T01:21:51.777Z,9.20
2018-03-14T01:22:51.727Z,9.50
2018-03-14T01:23:51.775Z,8.80
2018-03-14T01:24:52.625Z,9.30
2018-03-14T01:25:51.632Z,9.50
2018-03-14T01:26:51.550Z,9.50
2018-03-14T01:27:51.491Z,9.90
2018-03-14T01:28:51.467Z,10.10
2018-03-14T01:29:51.462Z,9.70
2018-03-14T01:30:51.373Z,9.00
2018-03-14T01:31:51.341Z,9.60
2018-03-14T01:32:51.316Z,9.70
2018-03-14T01:33:51.235Z,10.00
2018-03-14T01:34:51.402Z,10.80
2018-03-14T01:35:51.156Z,10.30
2018-03-14T01:36:51.105Z,10.40
2018-03-14T01:37:51.079Z,10.30
2018-03-14T01:38:51.026Z,10.00
2018-03-14T01:39:51.001Z,10.40
2018-03-14T01:40:51.046Z,10.60
2018-03-14T01:41:50.934Z,10.30
2018-03-14T01:42:50.859Z,10.20
2018-03-14T01:43:50.807Z,10.20
2018-03-14T01:44:50.844Z,10.80
2018-03-14T01:45:50.732Z,10.80
2018-03-14T01:46:50.687Z,10.10
2018-03-14T01:47:50.652Z,10.70
2018-03-14T01:48:50.603Z,10.00
2018-03-14T01:49:50.558Z,9.90
2018-03-14T01:50:50.517Z,11.10
2018-03-14T01:51:50.516Z,10.00
2018-03-14T01:52:50.449Z,10.70
2018-03-14T01:53:50.390Z,10.00
2018-03-14T01:54:50.410Z,10.40
2018-03-14T01:55:50.310Z,10.30
2018-03-14T01:56:50.270Z,10.60
2018-03-14T01:57:50.224Z,11.10
2018-03-14T01:58:50.186Z,10.30
2018-03-14T01:59:50.148Z,9.80
2018-03-14T02:00:50.115Z,9.60
2018-03-14T02:01:50.180Z,10.30
2018-03-14T02:02:50.025Z,10.80
2018-03-14T02:03:49.988Z,10.40
2018-03-14T02:04:49.932Z,10.50
2018-03-14T02:05:49.884Z,10.50
2018-03-14T02:06:49.842Z,11.00
2018-03-14T02:07:49.806Z,10.80
2018-03-14T02:08:49.757Z,10.60
2018-03-14T02:09:49.740Z,10.50
2018-03-14T02:10:49.674Z,10.60
2018-03-14T02:11:49.663Z,10.40
2018-03-14T02:12:49.571Z,10.60
2018-03-14T02:13:49.535Z,10.80
2018-03-14T02:14:49.528Z,10.60
2018-03-14T02:15:49.496Z,11.00
2018-03-14T02:16:49.448Z,10.40
2018-03-14T02:17:49.411Z,10.20
2018-03-14T02:18:49.358Z,11.00
2018-03-14T02:19:50.138Z,10.40
2018-03-14T02:20:49.266Z,10.70
2018-03-14T02:21:49.207Z,10.00
2018-03-14T02:22:49.183Z,10.50
2018-03-14T02:23:49.134Z,10.00
2018-03-14T02:24:49.071Z,10.40
2018-03-14T02:25:49.031Z,10.40
2018-03-14T02:26:48.989Z,10.10
2018-03-14T02:27:48.982Z,9.70
2018-03-14T02:28:48.921Z,9.80
2018-03-14T02:29:48.926Z,10.10
2018-03-14T02:30:48.861Z,9.80
2018-03-14T02:31:48.846Z,10.20
2018-03-14T02:32:48.737Z,10.20
2018-03-14T02:33:48.738Z,11.40
2018-03-14T02:34:48.672Z,10.40
2018-03-14T02:35:48.649Z,10.30
2018-03-14T02:36:48.604Z,10.70
2018-03-14T02:37:48.582Z,9.70
2018-03-14T02:38:48.536Z,10.30
2018-03-14T02:39:48.445Z,10.60
2018-03-14T02:40:48.415Z,10.70
2018-03-14T02:41:48.374Z,10.40
2018-03-14T02:42:48.344Z,10.50
2018-03-14T02:43:48.279Z,10.00
2018-03-14T02:44:48.223Z,10.00
2018-03-14T02:45:48.195Z,10.40
2018-03-14T02:46:48.182Z,10.50
2018-03-14T02:47:48.102Z,10.30
2018-03-14T02:48:48.074Z,10.50
2018-03-14T02:49:48.089Z,10.70
2018-03-14T02:50:47.998Z,10.50
2018-03-14T02:51:47.929Z,11.50
2018-03-14T02:52:47.926Z,10.60
2018-03-14T02:53:47.887Z,10.10
2018-03-14T02:54:47.836Z,10.40
2018-03-14T02:55:47.787Z,11.10
2018-03-14T02:56:47.765Z,10.10
2018-03-14T02:57:47.746Z,10.90
2018-03-14T02:58:47.638Z,10.40
2018-03-14T02:59:47.772Z,11.40
2018-03-14T03:00:47.557Z,11.00
2018-03-14T03:01:47.542Z,11.30
2018-03-14T03:02:47.539Z,11.60
2018-03-14T03:03:47.433Z,11.50
2018-03-14T03:04:47.429Z,11.10
2018-03-14T03:05:47.371Z,11.70
2018-03-14T03:06:47.309Z,11.70
2018-03-14T03:07:47.291Z,11.10
2018-03-14T03:08:47.230Z,10.90
2018-03-14T03:09:47.182Z,11.20
2018-03-14T03:10:47.163Z,11.20
2018-03-14T03:11:47.158Z,11.80
2018-03-14T03:12:47.080Z,11.40
2018-03-14T03:13:47.032Z,12.30
2018-03-14T03:14:47.037Z,12.00
2018-03-14T03:15:46.972Z,10.80
2018-03-14T03:16:46.918Z,10.90
2018-03-14T03:17:46.914Z,11.20
2018-03-14T03:18:46.818Z,11.80
2018-03-14T03:19:46.776Z,11.80
2018-03-14T03:20:46.742Z,12.50
2018-03-14T03:21:46.674Z,11.70
2018-03-14T03:22:46.627Z,10.80
2018-03-14T03:23:46.651Z,12.10
2018-03-14T03:24:46.572Z,11.30
2018-03-14T03:25:46.498Z,11.40
2018-03-14T03:26:47.145Z,11.20
2018-03-14T03:27:46.418Z,11.40
2018-03-14T03:28:46.392Z,11.50
2018-03-14T03:29:46.356Z,11.10
2018-03-14T03:30:46.302Z,11.30
2018-03-14T03:31:46.305Z,10.70
2018-03-14T03:32:46.259Z,10.90
2018-03-14T03:33:46.212Z,11.90
2018-03-14T03:34:46.187Z,11.50
2018-03-14T03:35:46.077Z,11.70
2018-03-14T03:36:46.116Z,11.00
2018-03-14T03:37:46.024Z,11.20
2018-03-14T03:38:45.970Z,11.20
2018-03-14T03:39:45.948Z,11.60
2018-03-14T03:40:45.917Z,10.40
2018-03-14T03:41:45.823Z,11.20
2018-03-14T03:42:45.783Z,11.10
2018-03-14T03:43:45.778Z,11.60
2018-03-14T03:44:45.709Z,10.50
2018-03-14T03:45:45.657Z,11.20
2018-03-14T03:46:45.622Z,11.30
2018-03-14T03:47:45.616Z,10.50
2018-03-14T03:48:45.593Z,9.90
2018-03-14T03:49:45.513Z,11.40
2018-03-14T03:50:45.504Z,10.70
2018-03-14T03:51:45.400Z,10.90
2018-03-14T03:52:45.440Z,11.00
2018-03-14T03:53:45.318Z,10.10
2018-03-14T03:54:45.314Z,9.50
2018-03-14T03:55:45.254Z,9.30
2018-03-14T03:56:45.201Z,10.90
2018-03-14T03:57:45.196Z,9.50
2018-03-14T03:58:45.104Z,10.50
2018-03-14T03:59:45.098Z,10.20
2018-03-14T04:00:45.024Z,10.10
2018-03-14T04:01:44.979Z,9.00
2018-03-14T04:02:44.951Z,9.80
2018-03-14T04:03:44.906Z,9.50
2018-03-14T04:04:44.870Z,8.80
2018-03-14T04:05:44.840Z,8.80
2018-03-14T04:06:44.795Z,9.00
2018-03-14T04:07:44.755Z,9.80
2018-03-14T04:08:44.740Z,10.50
2018-03-14T04:09:44.784Z,10.10
2018-03-14T04:10:44.592Z,11.00
2018-03-14T04:11:44.554Z,10.50
2018-03-14T04:12:44.532Z,10.30
2018-03-14T04:13:44.499Z,9.40
2018-03-14T04:14:44.436Z,10.10
2018-03-14T04:15:44.376Z,10.40
2018-03-14T04:16:44.379Z,9.50
2018-03-14T04:17:44.328Z,10.20
2018-03-14T04:18:44.264Z,11.00
2018-03-14T04:19:44.230Z,9.60
2018-03-14T04:20:44.180Z,10.20
2018-03-14T04:21:44.130Z,10.30
2018-03-14T04:22:44.088Z,10.10
2018-03-14T04:23:44.048Z,9.90
2018-03-14T04:24:44.004Z,9.40
2018-03-14T04:25:43.964Z,9.10
2018-03-14T04:26:43.977Z,9.10
2018-03-14T04:27:43.897Z,9.10
2018-03-14T04:28:43.883Z,9.00
2018-03-14T04:29:43.819Z,9.10
2018-03-14T04:30:43.748Z,9.60
2018-03-14T04:31:43.723Z,9.80
2018-03-14T04:32:43.715Z,9.50
2018-03-14T04:33:43.639Z,9.20
2018-03-14T04:34:43.613Z,9.30
2018-03-14T04:35:43.537Z,9.60
2018-03-14T04:36:43.534Z,8.90
2018-03-14T04:37:43.674Z,9.30
2018-03-14T04:38:43.443Z,10.10
2018-03-14T04:39:43.382Z,9.10
2018-03-14T04:40:43.339Z,9.60
2018-03-14T04:41:43.305Z,12.00
2018-03-14T04:42:43.244Z,12.90
2018-03-14T04:43:43.311Z,12.20
2018-03-14T04:44:43.203Z,13.30
2018-03-14T04:45:43.181Z,11.90
2018-03-14T04:46:43.133Z,10.10
2018-03-14T04:47:43.654Z,9.90
2018-03-14T04:48:43.027Z,9.80
2018-03-14T04:49:43.023Z,8.80
2018-03-14T04:50:42.923Z,9.30
2018-03-14T04:51:42.881Z,9.40
2018-03-14T04:52:42.960Z,9.70
2018-03-14T04:53:42.774Z,9.70
2018-03-14T04:54:42.738Z,9.10
2018-03-14T04:55:42.694Z,9.00
2018-03-14T04:56:42.698Z,9.10
2018-03-14T04:57:42.621Z,9.30
2018-03-14T04:58:42.590Z,10.00
2018-03-14T04:59:42.572Z,10.10
2018-03-14T05:00:42.492Z,10.60
2018-03-14T05:01:42.465Z,10.30
2018-03-14T05:02:42.423Z,9.70
2018-03-14T05:03:42.374Z,9.80
2018-03-14T05:04:42.323Z,10.30
2018-03-14T05:05:42.311Z,10.50
2018-03-14T05:06:42.306Z,10.20
2018-03-14T05:07:42.203Z,9.80
2018-03-14T05:08:42.162Z,9.60
2018-03-14T05:09:42.111Z,9.50
2018-03-14T05:10:42.100Z,10.60
2018-03-14T05:11:42.047Z,9.50
2018-03-14T05:12:41.990Z,9.90
2018-03-14T05:13:41.953Z,10.20
2018-03-14T05:14:41.925Z,11.00
2018-03-14T05:15:41.857Z,9.50
2018-03-14T05:16:41.829Z,9.80
2018-03-14T05:17:41.772Z,10.20
2018-03-14T05:18:41.808Z,10.60
2018-03-14T05:19:41.678Z,10.40
2018-03-14T05:20:41.696Z,10.10
2018-03-14T05:21:41.593Z,10.50
2018-03-14T05:22:41.600Z,10.50
2018-03-14T05:23:41.514Z,11.50
2018-03-14T05:24:41.481Z,12.10
2018-03-14T05:25:41.426Z,13.70
2018-03-14T05:26:41.385Z,13.60
2018-03-14T05:27:41.364Z,12.30
2018-03-14T05:28:41.309Z,11.30
2018-03-14T05:29:41.277Z,12.30
2018-03-14T05:30:41.223Z,12.10
2018-03-14T05:31:41.189Z,12.00
2018-03-14T05:32:41.141Z,11.50
2018-03-14T05:33:41.094Z,11.00
2018-03-14T05:34:41.068Z,10.50
2018-03-14T05:35:41.059Z,10.70
2018-03-14T05:36:40.977Z,11.00
2018-03-14T05:37:40.948Z,11.40
2018-03-14T05:38:40.878Z,11.50
2018-03-14T05:39:40.880Z,11.20
2018-03-14T05:40:40.796Z,10.10
2018-03-14T05:41:40.779Z,10.70
2018-03-14T05:42:40.704Z,10.30
2018-03-14T05:43:40.687Z,10.50
2018-03-14T05:44:40.630Z,9.90
2018-03-14T05:45:40.576Z,9.20
2018-03-14T05:46:40.554Z,10.00
2018-03-14T05:47:40.552Z,10.20
2018-03-14T05:48:40.501Z,9.80
2018-03-14T05:49:40.460Z,9.60
2018-03-14T05:50:40.392Z,10.00
2018-03-14T05:51:40.331Z,10.00
2018-03-14T05:52:40.282Z,10.10
2018-03-14T05:53:40.247Z,9.30
2018-03-14T05:54:40.228Z,9.80
2018-03-14T05:55:40.175Z,9.30
2018-03-14T05:56:40.146Z,9.10
2018-03-14T05:57:40.111Z,9.60
2018-03-14T05:58:40.085Z,10.60
2018-03-14T05:59:40.019Z,10.00
2018-03-14T06:00:39.948Z,8.80
2018-03-14T06:01:39.910Z,9.40
2018-03-14T06:02:39.872Z,9.50
2018-03-14T06:03:39.823Z,9.40
2018-03-14T06:04:39.786Z,9.10
2018-03-14T06:05:39.791Z,8.70
2018-03-14T06:06:40.675Z,9.40
2018-03-14T06:07:39.744Z,9.80
2018-03-14T06:08:39.615Z,9.30
2018-03-14T06:09:39.579Z,9.70
2018-03-14T06:10:39.533Z,9.20
2018-03-14T06:11:39.515Z,8.90
2018-03-14T06:12:39.478Z,9.30
2018-03-14T06:13:39.464Z,8.60
2018-03-14T06:14:39.387Z,9.20
2018-03-14T06:15:39.344Z,9.80
2018-03-14T06:16:39.293Z,10.00
2018-03-14T06:17:40.175Z,9.60
2018-03-14T06:18:39.195Z,8.10
2018-03-14T06:19:39.152Z,9.60
2018-03-14T06:20:39.105Z,9.60
2018-03-14T06:21:39.088Z,8.90
2018-03-14T06:22:39.063Z,9.70
2018-03-14T06:23:38.993Z,9.40
2018-03-14T06:24:38.941Z,9.00
2018-03-14T06:25:38.938Z,9.80
2018-03-14T06:26:38.861Z,8.80
2018-03-14T06:27:39.063Z,9.00
2018-03-14T06:28:38.811Z,8.60
2018-03-14T06:29:38.766Z,9.00
2018-03-14T06:30:38.731Z,8.80
2018-03-14T06:31:38.653Z,9.40
2018-03-14T06:32:39.179Z,9.80
2018-03-14T06:33:38.605Z,9.30
2018-03-14T06:34:38.576Z,9.00
2018-03-14T06:35:39.175Z,9.80
2018-03-14T06:36:38.447Z,9.90
2018-03-14T06:37:38.401Z,9.60
2018-03-14T06:38:38.359Z,9.80
2018-03-14T06:39:38.331Z,10.20
2018-03-14T06:40:38.292Z,9.90
2018-03-14T06:41:38.255Z,9.80
2018-03-14T06:42:38.193Z,10.30
2018-03-14T06:43:38.199Z,9.70
2018-03-14T06:44:38.128Z,10.00
2018-03-14T06:45:38.095Z,9.60
2018-03-14T06:46:38.050Z,10.20
2018-03-14T06:47:37.976Z,10.20
2018-03-14T06:48:37.936Z,10.50
2018-03-14T06:49:37.913Z,9.90
2018-03-14T06:50:38.677Z,10.50
2018-03-14T06:51:37.819Z,10.10
2018-03-14T06:52:38.686Z,10.30
2018-03-14T06:53:37.782Z,10.60
2018-03-14T06:54:37.702Z,9.60
2018-03-14T06:55:37.690Z,8.70
2018-03-14T06:56:37.631Z,9.00
2018-03-14T06:57:37.578Z,9.10
2018-03-14T06:58:37.531Z,8.50
2018-03-14T06:59:37.559Z,6.80
2018-03-14T07:00:37.463Z,6.90
2018-03-14T07:01:37.415Z,5.50
2018-03-14T07:02:37.366Z,5.70
2018-03-14T07:03:37.358Z,6.10
2018-03-14T07:04:37.289Z,5.90
2018-03-14T07:05:37.261Z,6.20
2018-03-14T07:06:37.195Z,5.70
2018-03-14T07:07:37.162Z,5.80
2018-03-14T07:08:37.142Z,5.30
2018-03-14T07:09:37.086Z,5.50
2018-03-14T07:10:37.081Z,5.60
2018-03-14T07:11:37.013Z,4.90
2018-03-14T07:12:36.985Z,5.20
2018-03-14T07:13:36.920Z,4.90
2018-03-14T07:14:36.873Z,5.50
2018-03-14T07:15:36.843Z,5.20
2018-03-14T07:16:36.780Z,4.80
2018-03-14T07:17:36.781Z,5.20
2018-03-14T07:18:36.736Z,5.30
2018-03-14T07:19:37.188Z,5.40
2018-03-14T07:20:36.612Z,5.50
2018-03-14T07:21:36.576Z,5.30
2018-03-14T07:22:36.545Z,4.90
2018-03-14T07:23:36.487Z,4.80
2018-03-14T07:24:39.279Z,4.80
2018-03-14T07:25:36.415Z,4.80
2018-03-14T07:26:36.344Z,4.90
2018-03-14T07:27:36.301Z,4.90
2018-03-14T07:28:36.338Z,4.50
2018-03-14T07:29:36.264Z,5.30
2018-03-14T07:30:36.181Z,5.40
2018-03-14T07:31:36.159Z,5.30
2018-03-14T07:32:36.143Z,5.30
2018-03-14T07:33:36.126Z,5.50
2018-03-14T07:34:36.009Z,5.40
2018-03-14T07:35:35.997Z,5.40
2018-03-14T07:36:35.938Z,5.60
2018-03-14T07:37:35.888Z,6.00
2018-03-14T07:38:36.538Z,6.30
2018-03-14T07:39:35.802Z,6.70
2018-03-14T07:40:35.791Z,6.80
2018-03-14T07:41:35.718Z,8.90
2018-03-14T07:42:35.692Z,9.40
2018-03-14T07:43:35.661Z,9.40
2018-03-14T07:44:35.626Z,8.10
2018-03-14T07:45:35.561Z,7.60
2018-03-14T07:46:35.528Z,7.10
2018-03-14T07:47:35.503Z,6.90
2018-03-14T07:48:35.432Z,7.80
2018-03-14T07:49:35.408Z,6.90
2018-03-14T07:50:35.374Z,7.10
2018-03-14T07:51:35.336Z,7.40
2018-03-14T07:52:35.334Z,7.20
2018-03-14T07:53:35.260Z,7.00
2018-03-14T07:54:35.184Z,7.20
2018-03-14T07:55:35.163Z,9.60
2018-03-14T07:56:35.108Z,11.80
2018-03-14T07:57:35.048Z,7.70
2018-03-14T07:58:35.015Z,7.90
2018-03-14T07:59:34.968Z,8.50
2018-03-14T08:00:34.959Z,8.70
2018-03-14T08:01:34.896Z,7.20
2018-03-14T08:02:34.864Z,7.80
2018-03-14T08:03:34.812Z,8.20
2018-03-14T08:04:34.833Z,7.20
2018-03-14T08:05:34.748Z,8.30
2018-03-14T08:06:34.727Z,7.90
2018-03-14T08:07:34.656Z,8.30
2018-03-14T08:08:34.616Z,7.40
2018-03-14T08:09:34.616Z,8.50
2018-03-14T08:10:34.540Z,8.20
2018-03-14T08:11:34.509Z,8.20
2018-03-14T08:12:34.447Z,8.40
2018-03-14T08:13:34.552Z,8.60
2018-03-14T08:14:34.391Z,8.20
2018-03-14T08:15:34.351Z,7.80
2018-03-14T08:16:34.367Z,8.50
2018-03-14T08:17:34.248Z,8.50
2018-03-14T08:18:34.201Z,7.90
2018-03-14T08:19:34.164Z,7.90
2018-03-14T08:20:34.692Z,8.00
2018-03-14T08:21:34.089Z,7.70
2018-03-14T08:22:34.083Z,7.10
2018-03-14T08:23:34.040Z,7.40
2018-03-14T08:24:34.032Z,8.00
2018-03-14T08:25:34.008Z,8.00
2018-03-14T08:26:33.942Z,7.50
2018-03-14T08:27:33.852Z,7.40
2018-03-14T08:28:33.803Z,8.20
2018-03-14T08:29:33.753Z,7.40
2018-03-14T08:30:33.788Z,8.00
2018-03-14T08:31:33.690Z,8.30
2018-03-14T08:32:34.195Z,8.10
2018-03-14T08:33:33.607Z,8.50
2018-03-14T08:34:33.670Z,8.00
2018-03-14T08:35:33.531Z,8.40
2018-03-14T08:36:33.473Z,8.60
2018-03-14T08:37:33.482Z,8.10
2018-03-14T08:38:33.551Z,8.90
2018-03-14T08:39:33.424Z,8.80
2018-03-14T08:40:33.334Z,8.50
2018-03-14T08:41:33.305Z,8.90
2018-03-14T08:42:33.228Z,9.30
2018-03-14T08:43:33.190Z,8.50
2018-03-14T08:44:33.161Z,9.30
2018-03-14T08:45:33.120Z,8.70
2018-03-14T08:46:33.054Z,9.10
2018-03-14T08:47:33.032Z,9.10
2018-03-14T08:48:33.003Z,9.90
2018-03-14T08:49:32.942Z,10.30
2018-03-14T08:50:32.947Z,9.90
2018-03-14T08:51:32.918Z,9.90
2018-03-14T08:52:32.831Z,9.70
2018-03-14T08:53:32.772Z,9.80
2018-03-14T08:54:32.745Z,9.90
2018-03-14T08:55:32.740Z,9.80
2018-03-14T08:56:32.703Z,10.30
2018-03-14T08:57:32.646Z,9.80
2018-03-14T08:58:32.698Z,10.10
2018-03-14T08:59:32.582Z,9.60
2018-03-14T09:00:32.546Z,9.40
2018-03-14T09:01:32.532Z,10.40
2018-03-14T09:02:32.481Z,10.60
2018-03-14T09:03:32.375Z,10.60
2018-03-14T09:04:32.364Z,10.10
2018-03-14T09:05:32.302Z,10.00
2018-03-14T09:06:32.269Z,9.90
2018-03-14T09:07:32.259Z,10.70
2018-03-14T09:08:32.245Z,10.30
2018-03-14T09:09:32.179Z,10.40
2018-03-14T09:10:32.171Z,9.90
2018-03-14T09:11:32.073Z,10.20
2018-03-14T09:12:32.070Z,10.50
2018-03-14T09:13:32.018Z,10.50
2018-03-14T09:14:31.984Z,10.70
2018-03-14T09:15:32.711Z,10.30
2018-03-14T09:16:31.888Z,10.30
2018-03-14T09:17:31.847Z,10.00
2018-03-14T09:18:31.807Z,10.70
2018-03-14T09:19:31.744Z,10.60
2018-03-14T09:20:31.710Z,10.40
2018-03-14T09:21:31.687Z,10.60
2018-03-14T09:22:31.641Z,10.80
2018-03-14T09:23:31.585Z,10.40
2018-03-14T09:24:31.684Z,10.50
2018-03-14T09:25:31.546Z,10.30
2018-03-14T09:26:31.474Z,10.70
2018-03-14T09:27:31.497Z,10.60
2018-03-14T09:28:31.482Z,10.20
2018-03-14T09:29:31.407Z,9.20
2018-03-14T09:30:31.373Z,10.30
2018-03-14T09:31:31.295Z,10.90
2018-03-14T09:32:31.283Z,10.30
2018-03-14T09:33:31.239Z,10.40
2018-03-14T09:34:31.217Z,10.10
2018-03-14T09:35:31.185Z,10.70
2018-03-14T09:36:31.166Z,10.70
2018-03-14T09:37:31.088Z,10.50
2018-03-14T09:38:31.014Z,10.40
2018-03-14T09:39:30.991Z,11.10
2018-03-14T09:40:30.955Z,10.20
2018-03-14T09:41:30.924Z,10.00
2018-03-14T09:42:30.872Z,10.30
2018-03-14T09:43:30.824Z,10.70
2018-03-14T09:44:30.889Z,10.20
2018-03-14T09:45:30.779Z,10.30
2018-03-14T09:46:30.692Z,9.80
2018-03-14T09:47:30.691Z,10.30
2018-03-14T09:48:30.621Z,10.30
2018-03-14T09:49:30.642Z,10.10
2018-03-14T09:50:30.567Z,9.90
2018-03-14T09:51:30.598Z,12.40
2018-03-14T09:52:30.540Z,10.20
2018-03-14T09:53:30.457Z,9.60
2018-03-14T09:54:30.436Z,9.70
2018-03-14T09:55:30.367Z,10.20
2018-03-14T09:56:30.369Z,10.20
2018-03-14T09:57:30.270Z,10.30
2018-03-14T09:58:30.267Z,10.80
2018-03-14T09:59:30.230Z,10.70
2018-03-14T10:00:30.210Z,11.10
2018-03-14T10:01:30.183Z,11.40
2018-03-14T10:02:30.085Z,10.90
2018-03-14T10:03:30.057Z,10.40
2018-03-14T10:04:30.001Z,10.70
2018-03-14T10:05:29.995Z,10.30
2018-03-14T10:06:29.982Z,11.20
2018-03-14T10:07:29.891Z,11.80
2018-03-14T10:08:29.841Z,10.50
2018-03-14T10:09:29.807Z,10.90
2018-03-14T10:10:29.772Z,11.60
2018-03-14T10:11:29.718Z,11.20
2018-03-14T10:12:29.757Z,11.10
2018-03-14T10:13:29.730Z,11.40
2018-03-14T10:14:29.655Z,11.50
2018-03-14T10:15:29.641Z,11.20
2018-03-14T10:16:29.555Z,11.20
2018-03-14T10:17:29.540Z,11.60
2018-03-14T10:18:29.468Z,11.90
2018-03-14T10:19:29.460Z,11.50
2018-03-14T10:20:29.370Z,11.40
2018-03-14T10:21:29.412Z,12.10
2018-03-14T10:22:29.302Z,12.00
2018-03-14T10:23:29.256Z,11.60
2018-03-14T10:24:29.203Z,11.50
2018-03-14T10:25:29.295Z,12.60
2018-03-14T10:26:29.144Z,12.10
2018-03-14T10:27:29.725Z,12.40
2018-03-14T10:28:29.058Z,11.90
2018-03-14T10:29:29.015Z,11.60
2018-03-14T10:30:29.018Z,11.90
2018-03-14T10:31:28.923Z,12.00
2018-03-14T10:32:28.936Z,12.40
2018-03-14T10:33:28.851Z,11.80
2018-03-14T10:34:28.856Z,12.00
2018-03-14T10:35:28.783Z,12.30
2018-03-14T10:36:29.722Z,12.50
2018-03-14T10:37:28.715Z,12.90
2018-03-14T10:38:29.222Z,12.60
2018-03-14T10:39:28.647Z,11.90
2018-03-14T10:40:28.586Z,11.90
2018-03-14T10:41:28.575Z,11.40
2018-03-14T10:42:28.545Z,11.60
2018-03-14T10:43:28.482Z,12.80
2018-03-14T10:44:28.418Z,12.10
2018-03-14T10:45:28.368Z,12.60
2018-03-14T10:46:28.356Z,13.20
2018-03-14T10:47:28.362Z,12.00
2018-03-14T10:48:28.278Z,12.60
2018-03-14T10:49:28.341Z,12.20
2018-03-14T10:50:28.179Z,12.00
2018-03-14T10:51:28.165Z,13.30
2018-03-14T10:52:28.153Z,13.10
2018-03-14T10:53:28.104Z,11.90
2018-03-14T10:54:28.056Z,12.00
2018-03-14T10:55:28.030Z,12.00
2018-03-14T10:56:27.955Z,12.00
2018-03-14T10:57:27.923Z,10.70
2018-03-14T10:58:27.901Z,11.90
2018-03-14T10:59:27.848Z,12.00
2018-03-14T11:00:27.858Z,12.60
2018-03-14T11:01:27.770Z,12.00
2018-03-14T11:02:27.712Z,12.20
2018-03-14T11:03:27.660Z,11.90
2018-03-14T11:04:27.631Z,11.70
2018-03-14T11:05:27.685Z,11.80
2018-03-14T11:06:27.569Z,11.90
2018-03-14T11:07:27.500Z,12.30
2018-03-14T11:08:27.512Z,12.10
2018-03-14T11:09:27.445Z,12.30
2018-03-14T11:10:27.414Z,11.90
2018-03-14T11:11:27.369Z,12.70
2018-03-14T11:12:27.345Z,12.50
2018-03-14T11:13:27.273Z,11.40
2018-03-14T11:14:27.230Z,12.10
2018-03-14T11:15:27.242Z,13.00
2018-03-14T11:16:27.205Z,13.40
2018-03-14T11:17:27.109Z,13.00
2018-03-14T11:18:27.081Z,12.40
2018-03-14T11:19:27.036Z,11.50
2018-03-14T11:20:27.058Z,11.30
2018-03-14T11:21:27.022Z,11.50
2018-03-14T11:22:26.951Z,11.90
2018-03-14T11:23:26.886Z,12.00
2018-03-14T11:24:26.867Z,12.00
2018-03-14T11:25:26.823Z,13.10
2018-03-14T11:26:26.773Z,13.40
2018-03-14T11:27:26.742Z,13.00
2018-03-14T11:28:26.711Z,11.80
2018-03-14T11:29:26.646Z,10.40
2018-03-14T11:30:26.619Z,10.10
2018-03-14T11:31:26.551Z,11.00
2018-03-14T11:32:26.572Z,11.30
2018-03-14T11:33:26.491Z,10.90
2018-03-14T11:34:26.523Z,11.20
2018-03-14T11:35:26.429Z,11.00
2018-03-14T11:36:26.366Z,12.00
2018-03-14T11:37:26.352Z,12.60
2018-03-14T11:38:26.296Z,12.40
2018-03-14T11:39:26.258Z,12.80
2018-03-14T11:40:26.738Z,12.80
2018-03-14T11:41:26.216Z,12.90
2018-03-14T11:42:26.195Z,12.40
2018-03-14T11:43:26.098Z,12.50
2018-03-14T11:44:26.052Z,13.40
2018-03-14T11:45:26.055Z,10.90
2018-03-14T11:46:25.973Z,11.00
2018-03-14T11:47:25.926Z,10.40
2018-03-14T11:48:25.883Z,11.80
2018-03-14T11:49:25.879Z,12.70
2018-03-14T11:50:25.823Z,12.50
2018-03-14T11:51:25.788Z,11.30
2018-03-14T11:52:25.800Z,10.00
2018-03-14T11:53:25.760Z,8.50
2018-03-14T11:54:25.659Z,8.90
2018-03-14T11:55:25.666Z,9.00
2018-03-14T11:56:25.597Z,9.00
2018-03-14T11:57:25.548Z,9.80
2018-03-14T11:58:25.508Z,8.80
2018-03-14T11:59:25.596Z,8.80
2018-03-14T12:00:25.452Z,9.00
2018-03-14T12:01:25.503Z,9.30
2018-03-14T12:02:25.367Z,9.20
2018-03-14T12:03:25.313Z,9.00
2018-03-14T12:04:25.256Z,8.80
2018-03-14T12:05:25.269Z,8.10
2018-03-14T12:06:25.183Z,8.00
2018-03-14T12:07:25.180Z,8.60
2018-03-14T12:08:25.105Z,8.50
2018-03-14T12:09:25.115Z,8.60
2018-03-14T12:10:25.040Z,8.00
2018-03-14T12:11:24.985Z,8.80
2018-03-14T12:12:24.996Z,8.90
2018-03-14T12:13:24.912Z,8.60
2018-03-14T12:14:24.934Z,8.10
2018-03-14T12:15:24.865Z,9.20
2018-03-14T12:16:24.815Z,8.00
2018-03-14T12:17:24.743Z,8.80
2018-03-14T12:18:24.751Z,8.70
2018-03-14T12:19:24.675Z,9.00
2018-03-14T12:20:24.652Z,8.60
2018-03-14T12:21:24.609Z,8.80
2018-03-14T12:22:24.624Z,9.00
2018-03-14T12:23:24.523Z,9.00
2018-03-14T12:24:24.484Z,8.70
2018-03-14T12:25:24.465Z,8.80
2018-03-14T12:26:24.450Z,8.30
2018-03-14T12:27:24.364Z,8.80
2018-03-14T12:28:24.335Z,8.20
2018-03-14T12:29:25.252Z,8.60
2018-03-14T12:30:24.252Z,8.30
2018-03-14T12:31:24.203Z,8.50
2018-03-14T12:32:24.180Z,8.70
2018-03-14T12:33:24.154Z,8.60
2018-03-14T12:34:24.158Z,8.70
2018-03-14T12:35:24.049Z,8.30
2018-03-14T12:36:24.036Z,8.90
2018-03-14T12:37:23.973Z,8.30
2018-03-14T12:38:23.984Z,8.00
2018-03-14T12:39:23.907Z,9.30
2018-03-14T12:40:24.015Z,9.80
2018-03-14T12:41:23.834Z,8.50
2018-03-14T12:42:23.841Z,8.90
2018-03-14T12:43:23.764Z,8.90
2018-03-14T12:44:23.696Z,10.00
2018-03-14T12:45:23.676Z,10.30
2018-03-14T12:46:23.666Z,10.00
2018-03-14T12:47:23.600Z,8.60
2018-03-14T12:48:23.560Z,7.60
2018-03-14T12:49:23.506Z,8.10
2018-03-14T12:50:23.543Z,8.20
2018-03-14T12:51:23.456Z,8.00
2018-03-14T12:52:23.390Z,7.90
2018-03-14T12:53:23.348Z,7.90
2018-03-14T12:54:23.334Z,7.80
2018-03-14T12:55:23.282Z,7.70
2018-03-14T12:56:23.253Z,7.90
2018-03-14T12:57:23.225Z,7.70
2018-03-14T12:58:23.222Z,8.30
2018-03-14T12:59:23.133Z,8.60
2018-03-14T13:00:23.124Z,8.20
2018-03-14T13:01:23.048Z,8.70
2018-03-14T13:02:23.017Z,8.10
2018-03-14T13:03:23.033Z,8.60
2018-03-14T13:04:22.918Z,8.90
2018-03-14T13:05:22.914Z,9.00